createdAt,value
2023-01-19T00:05:27.834Z,82.68
2023-01-19T00:15:49.168Z,82.78
2023-01-19T00:26:10.993Z,83.37
2023-01-19T00:36:32.738Z,83.22
2023-01-19T00:46:54.095Z,83.73
2023-01-19T00:57:15.710Z,83.63
2023-01-19T01:07:45.178Z,83.97
2023-01-19T01:18:06.781Z,83.47
2023-01-19T01:28:28.123Z,83.85
2023-01-19T01:38:49.570Z,84.32
2023-01-19T01:49:13.633Z,84.40
2023-01-19T01:59:39.160Z,85.22
2023-01-19T02:10:19.378Z,85.45
2023-01-19T02:20:43.150Z,85.45
2023-01-19T02:31:04.729Z,85.94
2023-01-19T02:41:28.432Z,86.49
2023-01-19T02:51:50.125Z,86.97
2023-01-19T03:02:30.551Z,87.73
2023-01-19T03:13:15.274Z,87.53
2023-01-19T03:23:38.721Z,88.44
2023-01-19T03:34:03.396Z,89.04
2023-01-19T03:44:26.769Z,88.98
2023-01-19T03:54:48.174Z,89.44
2023-01-19T04:05:09.649Z,88.79
2023-01-19T04:15:31.470Z,89.38
2023-01-19T04:25:59.888Z,89.50
2023-01-19T04:36:21.322Z,90.88
2023-01-19T04:46:42.751Z,91.11
2023-01-19T04:57:04.195Z,91.72
2023-01-19T05:07:25.577Z,91.50
2023-01-19T05:17:46.980Z,91.96
2023-01-19T05:28:08.585Z,91.78
2023-01-19T05:38:35.365Z,91.48
2023-01-19T05:48:57.458Z,92.85
2023-01-19T05:59:23.991Z,93.01
2023-01-19T06:09:45.382Z,93.47
2023-01-19T06:20:07.240Z,93.50
2023-01-19T06:30:29.054Z,93.21
2023-01-19T06:41:02.544Z,93.36
2023-01-19T06:51:24.323Z,93.62
2023-01-19T07:01:45.861Z,93.51
2023-01-19T07:12:07.800Z,92.94
2023-01-19T07:22:29.151Z,93.13
2023-01-19T07:32:50.475Z,93.16
2023-01-19T07:43:11.817Z,93.71
2023-01-19T07:53:33.358Z,93.26
2023-01-19T08:03:54.817Z,92.56
2023-01-19T08:14:16.221Z,92.78
2023-01-19T08:24:37.691Z,92.26
2023-01-19T08:34:59.043Z,92.74
2023-01-19T08:45:20.420Z,92.36
2023-01-19T08:55:41.836Z,92.72
2023-01-19T09:06:06.876Z,93.27
2023-01-19T09:16:29.271Z,93.42
2023-01-19T09:26:50.773Z,93.47
2023-01-19T09:37:12.551Z,92.88
2023-01-19T09:47:35.160Z,91.97
2023-01-19T09:57:56.582Z,92.55
2023-01-19T10:08:34.937Z,92.87
2023-01-19T10:18:58.027Z,91.29
2023-01-19T10:29:19.615Z,91.72
2023-01-19T10:39:41.900Z,91.42
2023-01-19T10:50:23.596Z,90.65
2023-01-19T11:00:44.993Z,91.07
2023-01-19T11:11:08.655Z,91.18
2023-01-19T11:21:31.212Z,91.29
2023-01-19T11:31:53.649Z,89.62
2023-01-19T11:42:15.575Z,88.75
2023-01-19T11:52:50.924Z,87.38
2023-01-19T12:03:12.298Z,85.47
2023-01-19T12:13:34.649Z,83.58
2023-01-19T12:24:16.261Z,79.51
2023-01-19T12:34:41.873Z,77.35
2023-01-19T12:45:14.856Z,77.11
2023-01-19T12:55:37.670Z,76.59
2023-01-19T13:05:59.173Z,75.83
2023-01-19T13:16:25.040Z,75.25
2023-01-19T13:26:49.378Z,74.18
2023-01-19T13:37:21.856Z,74.64
2023-01-19T13:47:45.604Z,74.63
2023-01-19T13:58:19.491Z,74.26
2023-01-19T14:08:40.936Z,74.12
2023-01-19T14:19:04.223Z,73.90
2023-01-19T14:29:25.823Z,75.05
2023-01-19T14:39:48.955Z,74.22
2023-01-19T14:50:27.847Z,73.69
2023-01-19T15:00:49.646Z,75.75
2023-01-19T15:11:29.948Z,76.08
2023-01-19T15:21:51.345Z,78.02
2023-01-19T15:32:14.157Z,78.08
2023-01-19T15:42:35.564Z,78.64
2023-01-19T15:52:57.092Z,79.47
2023-01-19T16:03:18.440Z,78.98
2023-01-19T16:13:40.011Z,79.62
2023-01-19T16:24:01.444Z,80.06
2023-01-19T16:34:25.324Z,79.48
2023-01-19T16:44:46.688Z,80.04
2023-01-19T16:55:09.566Z,80.19
2023-01-19T17:05:30.988Z,79.85
2023-01-19T17:15:52.385Z,80.53
2023-01-19T17:26:13.962Z,80.22
2023-01-19T17:36:35.367Z,80.55
2023-01-19T17:46:59.814Z,79.68
2023-01-19T17:57:21.325Z,80.66
2023-01-19T18:07:42.915Z,80.09
2023-01-19T18:18:04.329Z,80.99
2023-01-19T18:28:25.859Z,80.51
2023-01-19T18:38:47.694Z,81.23
2023-01-19T18:49:09.693Z,81.44
2023-01-19T18:59:31.128Z,80.33
2023-01-19T19:09:52.589Z,80.30
2023-01-19T19:20:14.484Z,80.44
2023-01-19T19:30:37.932Z,81.26
2023-01-19T19:41:04.175Z,81.67
2023-01-19T19:51:27.291Z,81.70
2023-01-19T20:01:50.441Z,82.56
2023-01-19T20:12:11.879Z,82.26
2023-01-19T20:22:33.221Z,82.97
2023-01-19T20:33:10.400Z,83.03
2023-01-19T20:43:31.854Z,82.97
2023-01-19T20:53:53.441Z,83.59
2023-01-19T21:04:15.410Z,83.92
2023-01-19T21:14:36.875Z,84.40
2023-01-19T21:24:58.235Z,84.28
2023-01-19T21:35:19.605Z,84.80
2023-01-19T21:45:43.010Z,84.87
2023-01-19T21:56:08.320Z,84.55
2023-01-19T22:06:29.703Z,84.25
2023-01-19T22:16:51.101Z,84.34
2023-01-19T22:27:12.945Z,84.31
2023-01-19T22:37:34.927Z,83.85
2023-01-19T22:47:56.299Z,84.05
2023-01-19T22:58:19.365Z,84.67
2023-01-19T23:08:41.401Z,84.25
2023-01-19T23:19:03.367Z,84.02
2023-01-19T23:29:24.751Z,84.74
2023-01-19T23:39:46.097Z,84.87
2023-01-19T23:50:07.826Z,84.96
